Kesley, IA (50649)

9:07 AM CDT on October 02, 2014 (GMT -0500)
Beeds Addition | Change Station
CLOSE
Current Station
Personal Weather Station
Location: Hampton, IA
Elevation: 1145 ft
Nearby Weather Stations
Active Advisory: Dense Fog Advisory

Elev 1145 ft 42.74 °N, 93.20 °W | Updated 1 second ago

Fog
Fog
62.1 °F
Feels Like 62.1 °F
N
5.4
Wind Variable Wind from ENE
Gusts 6.9 mph

Today
High -- | Low -- °F
--% Chance of Precip.
Yesterday
High -- | Low -- °F
Precip. -- in
7:09 AM 6:50 PM
First Quarter, 59% visible
Pressure 29.81 in
Visibility 3.0 miles
Clouds Overcast 600 ft
Dew Point 62 °F
Humidity 100%
Rainfall 0.00 in
Snow Depth Not available.
UV 0 out of 12
Pollen .50 out of 12
Air Quality Not available.
Flu Activity Not available.
METAR KALO 021354Z AUTO 10006KT 3SM BR OVC006 17/16 A2981 RMK AO2 SLP092 T01720161 TSNO

More Conditions Fewer Conditions

Pressure 29.81 in
Visibility 3.0 miles
Clouds Overcast 600 ft
Dew Point 62 °F
Humidity 100%
Rainfall 0.00 in
Snow Depth Not available.
UV 0 out of 12
Pollen .50 out of 12
Air Quality Not available.
Flu Activity Not available.
METAR KALO 021354Z AUTO 10006KT 3SM BR OVC006 17/16 A2981 RMK AO2 SLP092 T01720161 TSNO

More Conditions Fewer Conditions

10-Day Weather Forecast

Almanac

Astronomy

Oct. 02, 2014 Rise Set
Actual Time 7:09 AM CDT 6:50 PM CDT
Civil Twilight 6:41 AM CDT 7:19 PM CDT
Nautical Twilight 6:08 AM CDT 7:51 PM CDT
Astronomical Twilight 5:35 AM CDT 8:24 PM CDT
Moon 3:04 PM CDT 12:19 AM CDT
Length of Visible Light 12h 37m
Length of Day
11h 41m
Tomorrow will be 2m 52s shorter.
First Quarter, 59% of the Moon is Illuminated
Today
First Quarter
Oct 8
Full
Oct 15
Last Quarter
Oct 23
New
Oct 30
First Quarter

Today's Extremes

State Highs State Lows

Community

WunderPhotos

Upload Photos

1,758,247 photos uploaded!

WunderBlogs® & News

Nearby

Snow Depth

Station Depth Elevation
No new snow has been reported.

Earthquake Activity

City Distance Mag. Time & Date
No recent earthquake activity has been reported nearby.
Minimum magnitude displayed is 2.5.

Coastal Water Temperatures

Place Temperature
No Stations Reporting

Nearby Weather Stations